Estación Meteorológica Peña el Pijo (Robertgarden) [ 11/20/18 01:26:14 CET ]

Fecha Hora Presion(HPa) Temp (°C) Humedad % Rocio (°C) Viento ( m/s) Direccion Lluvia 1Hora(mm) Lluvia 24H(mm) LLuvia Total(mm)
2018-Nov-18 01:01:28 1001.700 8.8 89 7.1       2.59 130.01
2018-Nov-18 02:01:58 1001.500 8.8 89 7.1       2.07 130.01
2018-Nov-18 03:01:54 1000.900 8.5 87 6.5       2.07 130.01
2018-Nov-18 04:02:40 999.800 8.3 87 6.3       2.07 130.01
2018-Nov-18 05:02:13 998.900 7.7 86 5.5       2.07 130.01
2018-Nov-18 06:02:09 998.300 7.8 86 5.6 0.8 NE   1.55 130.01
2018-Nov-18 07:01:41 998.200 8.3 84 5.8       1.55 130.01
2018-Nov-18 08:01:39 998.000 8.1 84 5.6       1.03 130.01
2018-Nov-18 09:01:42 998.300 8.6 84 6.0       1.03 130.01
2018-Nov-18 10:01:44 998.400 9.1 82 6.1       1.03 130.01
2018-Nov-18 11:01:46 998.100 10.9 76 6.8       0.51 130.01
2018-Nov-18 12:01:44 997.600 12.4 69 6.9 0.6 E   0.51 130.01
2018-Nov-18 13:01:44 997.000 10.8 74 6.4       0.51 130.01
2018-Nov-18 14:01:47 996.700 9.5 77 5.6 2.3 NNE   0.51 130.01
2018-Nov-18 15:01:40 996.400 9.1 79 5.6       0.51 130.01
2018-Nov-18 16:01:43 995.200 9.1 82 6.1       0.51 130.01
2018-Nov-18 17:01:42 994.800 8.7 84 6.1       0.51 130.01
2018-Nov-18 18:01:43 994.600 8.4 86 6.2     0.51 1.03 130.53
2018-Nov-18 19:01:41 994.400 8.3 88 6.4     1.03 2.07 131.57
2018-Nov-18 20:01:37 994.300 8.2 89 6.5     2.07 4.66 134.16
2018-Nov-18 21:01:33 994.200 8.1 90 6.6     1.03 5.69 135.19
2018-Nov-18 22:01:43 994.200 7.9 91 6.5     0.51 6.21 136.23
2018-Nov-18 23:01:47 993.900 7.6 91 6.2     1.55 7.77 137.78

Temperatura Máxima:12°    Temperatura Mínima:
Presión Máxima:1001.700 Hpa    Presión Mínima:993.900 Hpa


Volver